Time;durP1;ratioP1;P1;durP2;ratioP2;P2;SDS_P1;SDS_P2;PMS_P1;PMS_P2;Temp;Humidity;BMP_temperature;BMP_pressure;BME280_temperature;BME280_humidity;BME280_pressure;Samples;Min_cycle;Max_cycle;Signal;HPM_P1;HPM_P2
2021/04/05 00:00:49;;;;;;;70.67;31.50;;;;;;;-2.20;87.38;99847.56;1764487;81;21648;-73
2021/04/05 00:03:21;;;;;;;72.60;33.45;;;;;;;-2.22;87.45;99849.25;1740598;82;21155;-73
2021/04/05 00:05:49;;;;;;;89.50;34.67;;;;;;;-2.23;87.52;99851.81;1777115;80;21198;-74
2021/04/05 00:08:28;;;;;;;73.22;33.78;;;;;;;-2.23;87.62;99849.23;1783237;80;21184;-73
2021/04/05 00:10:58;;;;;;;69.75;33.58;;;;;;;-2.25;87.68;99850.95;1761641;81;21617;-63
2021/04/05 00:13:31;;;;;;;56.98;27.65;;;;;;;-2.25;87.70;99848.37;1753601;81;21206;-64
2021/04/05 00:16:01;;;;;;;60.55;28.52;;;;;;;-2.29;87.64;99844.03;1761454;81;21209;-64
2021/04/05 00:18:30;;;;;;;63.80;29.50;;;;;;;-2.32;87.53;99839.28;1760507;80;21166;-63
2021/04/05 00:21:15;;;;;;;64.13;28.97;;;;;;;-2.30;87.54;99838.41;1759928;81;21258;-63
2021/04/05 00:23:43;;;;;;;56.75;25.82;;;;;;;-2.34;87.45;99842.27;1756826;80;21043;-71
2021/04/05 00:26:14;;;;;;;48.40;23.70;;;;;;;-2.36;87.48;99833.64;1673846;85;21444;-71
2021/04/05 00:28:44;;;;;;;49.10;23.12;;;;;;;-2.35;87.50;99834.09;1675175;85;21710;-72
2021/04/05 00:31:13;;;;;;;51.90;23.15;;;;;;;-2.36;87.53;99829.77;1695822;84;21211;-71
2021/04/05 00:33:42;;;;;;;46.60;23.05;;;;;;;-2.33;87.54;99825.92;1703412;84;21721;-71
2021/04/05 00:36:11;;;;;;;55.37;23.10;;;;;;;-2.36;87.48;99820.74;1704342;84;21682;-71
2021/04/05 00:38:40;;;;;;;46.88;23.00;;;;;;;-2.37;87.46;99821.61;1705880;79;21212;-62
2021/04/05 00:41:14;;;;;;;48.63;22.55;;;;;;;-2.37;87.42;99820.31;1827205;78;21610;-63
2021/04/05 00:43:46;;;;;;;43.13;21.00;;;;;;;-2.38;87.45;99819.00;1836839;78;21074;-63
2021/04/05 00:46:23;;;;;;;52.85;21.65;;;;;;;-2.40;87.42;99816.39;1791037;80;21206;-63
2021/04/05 00:48:51;;;;;;;43.30;20.25;;;;;;;-2.41;87.45;99817.26;1833912;78;21141;-63
2021/04/05 00:51:23;;;;;;;46.20;21.00;;;;;;;-2.44;87.45;99810.79;1834198;78;22424;-63
2021/04/05 00:53:52;;;;;;;53.87;25.32;;;;;;;-2.43;87.42;99810.36;1833748;77;21240;-73
2021/04/05 00:56:22;;;;;;;47.10;21.57;;;;;;;-2.43;87.45;99812.94;1820448;78;21195;-72
2021/04/05 00:58:50;;;;;;;52.08;26.17;;;;;;;-2.42;87.50;99812.07;1820235;78;21162;-72
2021/04/05 01:01:24;;;;;;;59.90;26.45;;;;;;;-2.42;87.51;99810.78;1820368;78;21225;-70
2021/04/05 01:03:53;;;;;;;57.10;26.45;;;;;;;-2.43;87.45;99802.63;1823793;78;22151;-73
2021/04/05 01:06:29;;;;;;;54.53;26.12;;;;;;;-2.42;87.46;99807.77;1852059;77;21168;-72
2021/04/05 01:08:57;;;;;;;54.90;26.45;;;;;;;-2.44;87.45;99809.50;1849663;77;20984;-63
2021/04/05 01:11:29;;;;;;;55.83;25.90;;;;;;;-2.44;87.49;99810.79;1800324;79;21236;-67
2021/04/05 01:13:58;;;;;;;53.52;24.47;;;;;;;-2.46;87.43;99807.33;1800362;79;21563;-64
2021/04/05 01:16:27;;;;;;;46.75;19.42;;;;;;;-2.48;87.42;99807.73;1800250;79;21274;-63
2021/04/05 01:18:56;;;;;;;55.33;25.27;;;;;;;-2.49;87.45;99804.70;1800090;79;21203;-65
2021/04/05 01:21:24;;;;;;;39.00;18.82;;;;;;;-2.51;87.47;99801.23;1800294;79;21147;-63
2021/04/05 01:23:52;;;;;;;37.00;15.95;;;;;;;-2.53;87.43;99801.67;1797220;79;21118;-77
2021/04/05 01:26:22;;;;;;;47.43;25.35;;;;;;;-2.54;87.36;99801.21;1740357;82;21173;-75
2021/04/05 01:28:50;;;;;;;40.70;19.25;;;;;;;-2.58;87.29;99796.86;1762691;79;21813;-78
2021/04/05 01:31:18;;;;;;;49.00;24.10;;;;;;;-2.62;87.23;99802.43;1770783;80;21142;-78
2021/04/05 01:33:51;;;;;;;44.83;23.43;;;;;;;-2.62;87.31;99799.84;1741736;82;22229;-76
2021/04/05 01:36:18;;;;;;;58.28;27.60;;;;;;;-2.64;87.32;99798.11;1710773;83;21269;-78
2021/04/05 01:38:50;;;;;;;59.20;27.67;;;;;;;-2.66;87.33;99799.37;1768050;80;21163;-79
2021/04/05 01:41:25;;;;;;;53.60;27.67;;;;;;;-2.66;87.58;99795.50;1768099;79;21365;-79
2021/04/05 01:43:53;;;;;;;53.13;26.70;;;;;;;-2.68;87.62;99788.60;1768035;81;21209;-79
2021/04/05 01:46:24;;;;;;;56.07;27.63;;;;;;;-2.68;87.63;99788.60;1768146;81;21150;-76
2021/04/05 01:48:53;;;;;;;46.83;25.63;;;;;;;-2.70;87.69;99783.42;1768180;81;21142;-75
2021/04/05 01:51:23;;;;;;;56.00;27.60;;;;;;;-2.72;87.60;99782.53;1767989;81;21539;-75
2021/04/05 01:53:57;;;;;;;46.97;21.43;;;;;;;-2.73;87.58;99779.96;1767569;78;21366;31
2021/04/05 01:56:25;;;;;;;57.87;28.37;;;;;;;-2.75;87.62;99778.64;1766885;81;21205;-63
2021/04/05 01:58:54;;;;;;;49.80;25.87;;;;;;;-2.76;87.71;99779.08;1767366;81;21142;-64
2021/04/05 02:01:28;;;;;;;55.17;25.40;;;;;;;-2.75;87.81;99778.22;1767448;81;21205;-63
2021/04/05 02:03:56;;;;;;;61.10;27.05;;;;;;;-2.75;87.81;99776.06;1767354;81;21217;-64
2021/04/05 02:08:40;;;;;;;57.20;27.60;;;;;;;-2.65;87.96;99774.45;1774598;79;23299;-63
2021/04/05 02:11:16;;;;;;;53.97;26.37;;;;;;;-2.70;87.93;99775.69;1691730;78;21191;-72
2021/04/05 02:13:45;;;;;;;53.87;27.40;;;;;;;-2.68;87.88;99775.71;1686653;85;21410;-72
2021/04/05 02:16:19;;;;;;;52.93;26.82;;;;;;;-2.68;87.89;99773.99;1687526;84;21206;-73
2021/04/05 02:18:49;;;;;;;54.55;28.07;;;;;;;-2.65;87.94;99777.02;1687483;85;21210;-72
2021/04/05 02:21:20;;;;;;;48.98;27.15;;;;;;;-2.65;87.83;99774.45;1687658;85;21174;-72
2021/04/05 02:24:13;;;;;;;65.17;29.42;;;;;;;-2.64;87.80;99776.20;1687472;84;21190;-72
2021/04/05 02:26:43;;;;;;;44.53;21.37;;;;;;;-2.66;87.64;99773.59;1683633;85;21448;-63
2021/04/05 02:29:11;;;;;;;36.87;18.90;;;;;;;-2.67;87.77;99769.70;1662700;85;21691;-62
2021/04/05 02:31:39;;;;;;;64.85;29.37;;;;;;;-2.66;87.83;99772.30;1683721;85;22561;-63
2021/04/05 02:34:11;;;;;;;67.17;31.05;;;;;;;-2.64;87.89;99771.89;1638476;85;21575;-62
2021/04/05 02:36:40;;;;;;;47.70;23.60;;;;;;;-2.65;87.82;99769.29;1660821;85;21139;-63
2021/04/05 02:39:11;;;;;;;58.83;28.52;;;;;;;-2.62;87.82;99770.63;1685353;79;21699;-76
2021/04/05 02:41:45;;;;;;;60.95;30.72;;;;;;;-2.61;87.95;99767.19;1797903;79;21153;-78
2021/04/05 02:44:14;;;;;;;63.68;30.75;;;;;;;-2.58;87.85;99764.63;1802279;79;21337;-77
2021/04/05 02:46:44;;;;;;;62.67;31.57;;;;;;;-2.60;87.72;99762.46;1802164;79;21158;-77
2021/04/05 02:49:15;;;;;;;55.43;30.02;;;;;;;-2.60;87.75;99754.73;1755443;79;21616;-78
2021/04/05 02:51:48;;;;;;;63.67;30.83;;;;;;;-2.60;87.75;99756.02;1802541;79;21401;-79
2021/04/05 02:54:21;;;;;;;52.13;26.17;;;;;;;-2.61;87.64;99754.30;1802177;79;21385;-76
2021/04/05 02:56:50;;;;;;;37.93;18.48;;;;;;;-2.60;87.55;99754.33;1802165;79;21680;-76
2021/04/05 02:59:23;;;;;;;57.10;26.97;;;;;;;-2.61;87.41;99756.87;1780455;79;21173;-76
2021/04/05 03:01:52;;;;;;;48.20;23.38;;;;;;;-2.63;87.46;99758.58;1781276;79;21138;-82
2021/04/05 03:04:20;;;;;;;35.63;18.10;;;;;;;-2.65;87.41;99756.40;1802736;79;21600;-77
2021/04/05 03:06:51;;;;;;;65.52;32.55;;;;;;;-2.67;87.42;99752.94;1802125;79;21170;-79
2021/04/05 03:09:19;;;;;;;55.90;28.45;;;;;;;-2.68;87.46;99756.38;1802348;79;21650;-78
2021/04/05 03:11:51;;;;;;;58.28;28.65;;;;;;;-2.68;87.51;99747.36;1802308;79;21162;-78
2021/04/05 03:14:19;;;;;;;64.30;31.37;;;;;;;-2.71;87.51;99747.30;1780667;79;21193;-77
2021/04/05 03:16:48;;;;;;;62.30;32.13;;;;;;;-2.71;87.59;99747.30;1802297;79;21196;-78
2021/04/05 03:19:16;;;;;;;65.17;31.20;;;;;;;-2.72;87.58;99743.02;1801889;79;21138;-77
2021/04/05 03:21:44;;;;;;;71.28;33.90;;;;;;;-2.76;87.69;99740.41;1801724;79;21613;-77
2021/04/05 03:24:13;;;;;;;56.23;28.33;;;;;;;-2.73;87.66;99743.88;1801991;79;21585;-78
2021/04/05 03:26:41;;;;;;;67.60;33.30;;;;;;;-2.78;87.59;99742.11;1789731;79;21156;-79
2021/04/05 03:29:12;;;;;;;70.42;34.73;;;;;;;-2.81;87.59;99743.34;1773920;79;21373;-78
2021/04/05 03:31:41;;;;;;;70.67;34.87;;;;;;;-2.81;87.77;99749.78;1783394;79;21164;-79
2021/04/05 03:34:16;;;;;;;66.37;33.58;;;;;;;-2.81;87.98;99745.92;1783410;79;21498;-78
2021/04/05 03:36:56;;;;;;;73.10;35.03;;;;;;;-2.77;88.17;99745.11;1786789;79;21117;-79
2021/04/05 03:39:25;;;;;;;44.85;21.23;;;;;;;-2.72;88.35;99748.17;1786876;80;21181;-79
2021/04/05 03:42:24;;;;;;;72.65;35.05;;;;;;;-2.67;88.42;99741.34;1786912;79;21438;-78
2021/04/05 03:45:09;;;;;;;81.78;34.18;;;;;;;-2.62;88.57;99741.84;1786524;79;21128;-80
2021/04/05 03:48:13;;;;;;;67.85;35.30;;;;;;;-2.53;88.68;99739.78;1783679;80;21169;-79
2021/04/05 03:50:55;;;;;;;51.25;26.33;;;;;;;-2.45;88.77;99735.55;1783376;79;21125;-78
2021/04/05 03:53:40;;;;;;;46.80;22.73;;;;;;;-2.34;88.79;99739.09;1783163;79;21212;-79
2021/04/05 03:56:16;;;;;;;67.25;32.75;;;;;;;-2.23;88.87;99729.28;1783156;79;21395;-80
2021/04/05 03:58:49;;;;;;;67.72;33.67;;;;;;;-2.10;89.04;99736.27;1783073;79;21098;-79
2021/04/05 04:01:27;;;;;;;68.33;34.40;;;;;;;-1.96;89.15;99732.07;1783385;80;21220;-80
2021/04/05 04:04:07;;;;;;;65.30;34.65;;;;;;;-1.87;89.09;99729.13;1783195;79;21488;-81
2021/04/05 04:06:39;;;;;;;68.42;33.55;;;;;;;-1.75;88.99;99724.03;1801519;79;21157;-80
2021/04/05 04:09:04;;;;;;;57.85;29.63;;;;;;;-1.65;88.95;99731.44;1801225;79;21361;-76
2021/04/05 04:11:35;;;;;;;57.10;28.77;;;;;;;-1.55;88.81;99727.60;1801721;79;21625;-76
2021/04/05 04:14:05;;;;;;;89.42;41.90;;;;;;;-1.47;88.63;99719.92;1801354;78;21216;-74
2021/04/05 04:16:34;;;;;;;67.53;29.90;;;;;;;-1.36;88.64;99721.23;1801554;79;21141;-75
2021/04/05 04:19:03;;;;;;;66.28;31.30;;;;;;;-1.25;88.58;99721.30;1801410;79;21189;-75
2021/04/05 04:21:32;;;;;;;76.87;35.25;;;;;;;-1.16;88.63;99722.19;1779134;79;22270;-76
2021/04/05 04:24:00;;;;;;;79.27;35.65;;;;;;;-1.06;88.54;99717.51;1801453;79;21614;-75
2021/04/05 04:26:34;;;;;;;60.33;30.72;;;;;;;-0.95;88.43;99717.95;1801481;79;21214;-75
2021/04/05 04:29:05;;;;;;;66.75;34.13;;;;;;;-0.88;88.32;99720.99;1781796;79;22151;-76
2021/04/05 04:31:33;;;;;;;65.10;33.88;;;;;;;-0.82;88.32;99721.45;1772255;80;21164;-74
2021/04/05 04:34:01;;;;;;;69.17;35.78;;;;;;;-0.75;88.40;99716.29;1772153;80;21387;-76
2021/04/05 04:36:29;;;;;;;70.30;34.60;;;;;;;-0.65;88.43;99711.99;1783586;79;21612;-85
2021/04/05 04:38:57;;;;;;;66.45;33.90;;;;;;;-0.55;88.44;99712.86;1790598;79;21654;-79
2021/04/05 04:41:28;;;;;;;71.40;35.85;;;;;;;-0.45;88.23;99700.39;1751346;80;21239;-79
2021/04/05 04:44:00;;;;;;;57.58;30.88;;;;;;;-0.36;88.07;99697.80;1715349;83;21156;-80
2021/04/05 04:46:28;;;;;;;60.73;31.15;;;;;;;-0.26;87.98;99701.25;1746306;81;22186;-77
2021/04/05 04:49:04;;;;;;;71.87;34.23;;;;;;;-0.16;87.89;99693.05;1715166;82;21619;-80
2021/04/05 04:51:32;;;;;;;54.98;29.92;;;;;;;-0.01;87.80;99696.92;1746566;81;21199;-77
2021/04/05 04:54:01;;;;;;;56.23;28.42;;;;;;;0.13;87.80;99691.73;1686327;85;21187;-80
2021/04/05 04:56:30;;;;;;;62.10;31.23;;;;;;;0.26;87.71;99686.95;1739207;81;21732;-79
2021/04/05 04:59:08;;;;;;;59.77;30.80;;;;;;;0.37;87.52;99683.91;1762346;81;21812;-78
2021/04/05 05:01:40;;;;;;;50.63;27.98;;;;;;;0.46;87.15;99683.03;1716091;82;21233;-77
2021/04/05 05:04:19;;;;;;;52.23;29.37;;;;;;;0.55;86.93;99685.59;1745402;81;21224;-78
2021/04/05 05:06:48;;;;;;;71.55;31.50;;;;;;;0.62;86.32;99684.70;1716669;83;21138;-78
2021/04/05 05:09:19;;;;;;;52.80;29.00;;;;;;;0.71;86.07;99675.14;1716428;83;21178;-80
2021/04/05 05:11:47;;;;;;;65.55;34.48;;;;;;;0.80;85.46;99673.80;1705162;80;21382;-67
2021/04/05 05:14:16;;;;;;;73.25;36.75;;;;;;;0.91;84.91;99678.50;1744692;82;21236;-68
2021/04/05 05:16:45;;;;;;;73.57;39.60;;;;;;;1.28;86.14;99677.00;1745569;82;21153;-68
2021/04/05 05:19:16;;;;;;;59.38;33.48;;;;;;;2.19;86.83;99670.62;1745097;82;21224;-68
2021/04/05 05:21:54;;;;;;;49.67;29.25;;;;;;;3.38;86.41;99669.96;1744842;82;21189;-67
2021/04/05 05:24:26;;;;;;;52.15;28.95;;;;;;;4.62;83.48;99659.09;1745346;82;21385;-68
2021/04/05 05:26:54;;;;;;;;;;;;;;;5.73;78.96;99661.84;1662123;80;21747;-76
2021/04/05 05:29:21;;;;;;;42.90;26.12;;;;;;;6.57;74.97;99657.04;1666155;86;20271;-76
2021/04/05 05:31:50;;;;;;;47.70;28.30;;;;;;;6.94;69.89;99654.20;1685490;82;21089;-76
2021/04/05 05:34:22;;;;;;;50.35;29.32;;;;;;;7.01;68.40;99648.34;1699736;84;21205;-76
2021/04/05 05:36:52;;;;;;;64.60;37.08;;;;;;;6.97;66.01;99645.43;1699912;84;21208;-74
2021/04/05 05:39:19;;;;;;;61.55;37.83;;;;;;;6.67;65.96;99643.23;1699730;84;21647;-75
2021/04/05 05:42:13;;;;;;;71.35;36.55;;;;;;;6.44;65.42;99650.42;1681818;82;21138;-68
2021/04/05 05:45:06;;;;;;;51.33;29.80;;;;;;;6.26;65.51;99649.20;1726419;82;21163;-68
2021/04/05 05:47:51;;;;;;;41.90;24.10;;;;;;;6.06;65.68;99646.65;1711705;83;21285;-67
2021/04/05 05:50:44;;;;;;;44.67;25.12;;;;;;;5.97;65.73;99644.27;1729543;82;22146;-68
2021/04/05 05:53:57;;;;;;;45.78;25.45;;;;;;;5.96;65.71;99641.69;1698397;83;21184;-68
2021/04/05 05:56:44;;;;;;;43.52;25.68;;;;;;;5.95;66.05;99644.76;1675943;82;21201;-80
2021/04/05 05:59:34;;;;;;;59.93;27.17;;;;;;;6.07;65.01;99633.13;1682094;83;21216;-79
2021/04/05 06:02:27;;;;;;;43.42;24.70;;;;;;;6.80;65.62;99624.97;1664063;84;21209;-80
2021/04/05 06:05:10;;;;;;;42.17;24.65;;;;;;;7.90;63.37;99620.60;1687861;84;22067;-79
2021/04/05 06:08:03;;;;;;;53.38;29.65;;;;;;;8.86;60.53;99618.06;1683444;84;21215;-81
2021/04/05 06:10:53;;;;;;;55.98;32.25;;;;;;;9.43;57.70;99619.33;1652589;85;21203;-79
2021/04/05 06:13:58;;;;;;;52.50;30.25;;;;;;;9.85;55.66;99611.89;1688845;83;21245;-79
2021/04/05 06:16:37;;;;;;;55.60;29.57;;;;;;;10.44;55.09;99608.05;1626516;87;21739;-81
2021/04/05 06:19:25;;;;;;;36.17;18.50;;;;;;;11.19;51.71;99601.95;1709801;82;22216;-80
2021/04/05 06:22:13;;;;;;;29.82;19.12;;;;;;;11.75;49.73;99592.17;1716318;82;21175;-81
2021/04/05 06:25:35;;;;;;;33.20;17.73;;;;;;;12.32;46.59;99592.77;1700965;82;21219;-80
2021/04/05 06:28:10;;;;;;;34.98;19.90;;;;;;;12.98;48.01;99587.89;1625302;86;21222;-68
2021/04/05 06:31:25;;;;;;;30.37;15.88;;;;;;;13.94;43.86;99591.25;1631017;86;21223;-68
2021/04/05 06:33:54;;;;;;;19.52;12.40;;;;;;;14.55;41.52;99587.17;1626615;86;21236;-68
2021/04/05 06:37:07;;;;;;;17.00;9.53;;;;;;;15.21;39.33;99579.02;1610733;86;21222;-69
2021/04/05 06:39:39;;;;;;;28.83;14.58;;;;;;;15.63;40.28;99577.98;1642275;86;21238;-68
2021/04/05 06:42:13;;;;;;;25.75;14.93;;;;;;;15.84;36.65;99574.87;1658480;84;26684;-80
2021/04/05 06:45:25;;;;;;;19.30;11.38;;;;;;;16.11;35.66;99582.28;1644865;86;21201;-79
2021/04/05 06:48:36;;;;;;;17.05;10.00;;;;;;;16.50;34.47;99575.64;1666404;84;21234;-77
2021/04/05 06:51:20;;;;;;;13.48;7.22;;;;;;;16.97;33.67;99584.23;1667123;85;21273;-79
2021/04/05 06:54:23;;;;;;;10.38;5.97;;;;;;;17.20;32.58;99582.55;1663896;84;21250;-81
2021/04/05 06:57:15;;;;;;;9.35;5.90;;;;;;;17.38;30.64;99577.70;1646264;81;21263;-69
2021/04/05 07:00:29;;;;;;;8.88;5.42;;;;;;;17.62;29.32;99575.48;1648565;85;21196;-67
2021/04/05 07:03:19;;;;;;;8.50;5.15;;;;;;;17.96;29.77;99567.16;1645562;85;21408;-69
2021/04/05 07:06:09;;;;;;;7.80;5.53;;;;;;;18.26;28.42;99562.25;1645727;85;21222;-68
2021/04/05 07:08:45;;;;;;;;;;;;;;;18.58;28.29;99561.89;1639981;86;21206;-70
2021/04/05 07:11:27;;;;;;;12.03;6.08;;;;;;;18.84;27.73;99554.98;1647346;83;20628;-80
2021/04/05 07:14:16;;;;;;;6.75;3.83;;;;;;;18.76;28.09;99562.73;1653572;85;21194;-81
2021/04/05 07:17:19;;;;;;;5.95;3.10;;;;;;;18.60;25.86;99563.95;1638387;86;21222;-81
2021/04/05 07:20:20;;;;;;;8.50;5.35;;;;;;;18.73;25.65;99557.66;1653358;86;21210;-81
2021/04/05 07:23:28;;;;;;;12.05;5.37;;;;;;;18.82;25.30;99555.12;1659639;86;28950;-80
2021/04/05 07:26:20;;;;;;;5.60;3.25;;;;;;;18.77;25.72;99549.33;1648541;85;21175;-81
2021/04/05 07:28:56;;;;;;;5.50;2.80;;;;;;;18.51;25.19;99542.02;1626796;86;21214;-81
2021/04/05 07:31:31;;;;;;;10.05;2.60;;;;;;;18.24;24.87;99533.91;1626798;86;21196;-81
2021/04/05 07:34:03;;;;;;;5.53;2.77;;;;;;;18.60;24.27;99531.95;1639641;86;21142;-81
2021/04/05 07:36:50;;;;;;;4.05;2.72;;;;;;;18.90;24.26;99533.66;1634638;86;21230;-80
2021/04/05 07:39:36;;;;;;;5.95;2.65;;;;;;;19.13;24.71;99523.77;1635301;86;21156;-80
2021/04/05 07:42:23;;;;;;;5.85;3.20;;;;;;;19.37;24.88;99524.88;1642154;86;21600;-81
2021/04/05 07:45:17;;;;;;;12.80;4.83;;;;;;;19.26;23.80;99519.12;1642387;86;21384;-81
2021/04/05 07:47:56;;;;;;;8.53;4.22;;;;;;;19.30;24.00;99516.53;1648018;86;21218;-80
2021/04/05 07:50:38;;;;;;;4.58;2.17;;;;;;;18.90;22.69;99511.81;1634297;86;21262;-82
2021/04/05 07:53:38;;;;;;;4.62;2.77;;;;;;;18.31;23.91;99517.42;1636231;86;21206;-81
2021/04/05 07:56:28;;;;;;;5.37;2.85;;;;;;;17.96;24.96;99508.55;1642071;86;21633;-82
2021/04/05 07:59:47;;;;;;;11.08;3.70;;;;;;;17.60;25.88;99509.55;1641192;86;21438;-80
2021/04/05 08:02:29;;;;;;;8.65;4.45;;;;;;;17.76;24.92;99499.42;1641860;86;21253;-80
2021/04/05 08:05:33;;;;;;;6.33;4.08;;;;;;;18.04;25.76;99491.98;1636854;86;21226;-81
2021/04/05 08:08:31;;;;;;;5.47;3.27;;;;;;;17.94;27.06;99491.83;1633316;87;22244;-80
2021/04/05 08:11:11;;;;;;;7.05;4.03;;;;;;;17.27;25.09;99489.82;1628227;85;21346;-70
2021/04/05 08:17:30;;;;;;;8.80;4.62;;;;;;;15.17;29.89;99486.85;1887219;76;22422;-70
2021/04/05 08:20:24;;;;;;;7.10;3.95;;;;;;;14.92;31.31;99482.30;1857762;77;21174;-69
2021/04/05 08:23:14;;;;;;;10.55;3.77;;;;;;;15.01;26.97;99471.58;1857777;77;21217;-69
2021/04/05 08:25:59;;;;;;;6.63;3.23;;;;;;;15.09;28.14;99470.58;1824005;77;21664;31
2021/04/05 08:28:40;;;;;;;7.45;3.10;;;;;;;14.72;28.06;99474.31;1682493;85;21292;-77
2021/04/05 08:31:46;;;;;;;4.65;3.00;;;;;;;14.37;29.58;99469.44;1700113;84;21218;-76
2021/04/05 08:34:59;;;;;;;5.03;2.85;;;;;;;14.06;30.04;99472.69;1667358;84;21879;-78
2021/04/05 08:37:42;;;;;;;5.50;2.70;;;;;;;13.65;29.59;99465.95;1666770;85;22421;-79
2021/04/05 08:40:33;;;;;;;4.03;2.62;;;;;;;13.33;32.46;99462.59;1677264;84;21203;-77
2021/04/05 08:43:20;;;;;;;4.25;2.65;;;;;;;13.18;31.69;99461.20;1745777;79;21150;-69
2021/04/05 08:45:59;;;;;;;5.75;2.60;;;;;;;12.74;30.54;99454.48;1727671;79;21126;-69
2021/04/05 08:48:29;;;;;;;7.33;3.20;;;;;;;12.50;30.79;99458.05;1737084;81;21214;-69
2021/04/05 08:51:03;;;;;;;9.35;3.20;;;;;;;12.38;31.08;99455.15;1771475;81;21196;-70
2021/04/05 08:53:31;;;;;;;9.08;3.35;;;;;;;12.22;30.07;99446.84;1801881;78;21148;-70
2021/04/05 08:56:01;;;;;;;52.03;7.12;;;;;;;11.84;31.26;99447.08;1798086;77;22020;-77
2021/04/05 08:58:49;;;;;;;10.75;4.05;;;;;;;11.50;32.74;99439.16;1729668;81;21154;-77
2021/04/05 09:01:22;;;;;;;19.15;4.83;;;;;;;11.23;33.09;99437.47;1731531;81;21185;-79
2021/04/05 09:03:50;;;;;;;33.00;4.70;;;;;;;10.92;36.07;99431.55;1730549;81;21669;-80
2021/04/05 09:06:35;;;;;;;33.45;4.72;;;;;;;10.58;36.27;99433.22;1735594;81;21647;-78
2021/04/05 09:09:03;;;;;;;65.97;6.20;;;;;;;10.36;36.96;99431.22;1701033;82;21212;-78
2021/04/05 09:11:35;;;;;;;9.15;3.85;;;;;;;10.17;33.68;99425.47;1720315;78;21219;-71
2021/04/05 09:14:04;;;;;;;114.82;9.88;;;;;;;9.97;33.37;99424.21;1725903;80;21182;-71
2021/04/05 09:16:55;;;;;;;54.13;7.10;;;;;;;9.86;36.38;99429.48;1735351;81;21283;-71
2021/04/05 09:19:49;;;;;;;57.58;7.25;;;;;;;9.85;35.81;99415.95;1769217;79;21170;-71
2021/04/05 09:22:53;;;;;;;42.03;6.33;;;;;;;9.85;35.67;99415.95;1776935;79;21240;-69
2021/04/05 09:25:41;;;;;;;15.18;5.53;;;;;;;9.77;38.81;99410.17;1718671;81;21216;-71
2021/04/05 09:28:45;;;;;;;45.10;6.90;;;;;;;9.67;35.30;99418.09;1717048;81;21248;-75
2021/04/05 09:32:00;;;;;;;11.20;4.92;;;;;;;9.54;34.98;99412.98;1755267;81;21213;-75
2021/04/05 09:35:06;;;;;;;29.18;6.95;;;;;;;9.40;37.29;99409.19;1764580;79;21237;-76
2021/04/05 09:38:05;;;;;;;33.55;7.83;;;;;;;9.35;37.89;99403.75;1762356;79;21214;-75
2021/04/05 09:41:12;;;;;;;14.35;5.42;;;;;;;9.37;36.80;99399.28;1762346;81;21198;-76
2021/04/05 09:44:28;;;;;;;15.40;5.50;;;;;;;9.47;39.55;99394.47;1715561;82;21135;-71
2021/04/05 09:47:29;;;;;;;10.93;5.85;;;;;;;9.61;39.34;99385.50;1692620;83;21214;-72
2021/04/05 09:50:21;;;;;;;19.05;6.37;;;;;;;10.05;36.65;99372.96;1693571;83;21752;-69
2021/04/05 09:53:28;;;;;;;24.37;7.00;;;;;;;10.43;37.05;99376.03;1681554;83;21168;-72
2021/04/05 09:56:20;;;;;;;45.33;8.05;;;;;;;10.76;38.81;99373.98;1700789;84;21679;-71
2021/04/05 09:59:04;;;;;;;9.48;5.60;;;;;;;11.02;33.82;99374.84;1689131;84;21173;-79
2021/04/05 10:01:33;;;;;;;14.87;5.92;;;;;;;11.01;32.42;99366.54;1692866;84;21375;-78
2021/04/05 10:04:08;;;;;;;10.68;5.65;;;;;;;10.88;34.48;99359.74;1705478;83;21149;-79
2021/04/05 10:06:36;;;;;;;14.65;6.22;;;;;;;10.88;35.87;99365.45;1706175;84;21173;-77
2021/04/05 10:09:06;;;;;;;15.38;5.62;;;;;;;10.92;35.97;99364.38;1706609;84;21164;-79
2021/04/05 10:11:39;;;;;;;8.98;4.92;;;;;;;10.91;38.50;99366.64;1704869;79;21254;-73
2021/04/05 10:14:12;;;;;;;9.70;4.33;;;;;;;10.87;32.79;99361.13;1672565;85;21397;-72
2021/04/05 10:16:45;;;;;;;9.03;3.85;;;;;;;10.54;32.90;99356.62;1671513;84;21646;-72
2021/04/05 10:19:13;;;;;;;6.95;3.40;;;;;;;10.15;33.18;99356.73;1672233;84;21230;-73
2021/04/05 10:21:52;;;;;;;11.73;4.15;;;;;;;9.80;32.59;99348.27;1690004;84;21201;-75
2021/04/05 10:24:22;;;;;;;8.00;3.70;;;;;;;9.69;33.54;99345.73;1676034;85;21256;-72
2021/04/05 10:26:52;;;;;;;15.03;5.55;;;;;;;9.68;33.47;99341.39;1675523;76;22156;-75
2021/04/05 10:29:22;;;;;;;14.15;4.80;;;;;;;9.67;32.87;99343.17;1723275;82;21209;-74
2021/04/05 10:31:52;;;;;;;11.55;4.90;;;;;;;9.63;34.05;99334.55;1676744;84;21691;-77
2021/04/05 10:34:25;;;;;;;14.83;3.72;;;;;;;9.61;34.27;99338.19;1656751;84;21217;-76
2021/04/05 10:37:17;;;;;;;8.38;3.67;;;;;;;9.47;33.58;99334.02;1635139;84;21153;-78
2021/04/05 10:39:53;;;;;;;10.93;4.58;;;;;;;9.36;36.11;99336.69;1650525;86;22447;-80
2021/04/05 10:42:37;;;;;;;16.50;5.45;;;;;;;9.36;34.35;99327.48;1664901;86;21216;-80
2021/04/05 10:45:12;;;;;;;7.83;3.83;;;;;;;9.37;33.03;99327.86;1653411;85;21192;-80
2021/04/05 10:47:48;;;;;;;14.68;4.70;;;;;;;9.41;32.95;99321.55;1659335;86;21220;-79
2021/04/05 10:50:16;;;;;;;13.00;4.62;;;;;;;9.66;33.05;99315.16;1673868;85;21228;-80
2021/04/05 10:52:45;;;;;;;20.50;4.42;;;;;;;9.70;33.11;99308.84;1664783;84;21229;-80
2021/04/05 10:55:26;;;;;;;10.93;3.80;;;;;;;9.62;32.20;99314.46;1647788;87;21241;-79
2021/04/05 10:58:00;;;;;;;9.55;4.12;;;;;;;9.44;32.00;99313.52;1645608;87;21195;-80
2021/04/05 11:00:39;;;;;;;7.12;3.35;;;;;;;9.36;32.65;99307.78;1664831;86;21189;-81
2021/04/05 11:03:23;;;;;;;5.50;2.92;;;;;;;9.45;32.61;99299.47;1673507;85;21214;-80
2021/04/05 11:05:51;;;;;;;11.73;3.50;;;;;;;9.70;32.07;99293.53;1682204;84;21811;-78
2021/04/05 11:08:26;;;;;;;18.37;5.10;;;;;;;9.85;31.66;99284.47;1664440;86;21262;-80
2021/04/05 11:11:11;;;;;;;19.27;4.28;;;;;;;9.93;31.56;99287.19;1683572;84;21689;-80
2021/04/05 11:13:42;;;;;;;17.02;4.83;;;;;;;9.89;31.19;99277.27;1675037;85;21705;-80
2021/04/05 11:16:17;;;;;;;18.17;4.22;;;;;;;9.92;31.37;99282.87;1680119;85;21153;-79
2021/04/05 11:18:51;;;;;;;8.85;3.55;;;;;;;9.97;31.54;99281.70;1677957;85;21165;-80
2021/04/05 11:21:22;;;;;;;7.75;3.37;;;;;;;9.89;31.81;99269.37;1663180;84;21168;-79
2021/04/05 11:23:56;;;;;;;15.65;4.20;;;;;;;9.75;31.65;99268.72;1664135;84;21238;-79
2021/04/05 11:26:32;;;;;;;12.53;4.08;;;;;;;9.68;30.99;99273.88;1661927;86;21202;-80
2021/04/05 11:29:03;;;;;;;9.45;3.08;;;;;;;9.58;31.84;99269.98;1641788;87;21203;-80
2021/04/05 11:31:42;;;;;;;12.43;3.98;;;;;;;9.60;32.06;99260.25;1653154;85;22270;-78
2021/04/05 11:34:10;;;;;;;9.20;3.65;;;;;;;9.62;32.22;99270.24;1621779;87;21225;-80
2021/04/05 11:36:50;;;;;;;9.23;3.87;;;;;;;9.71;31.69;99255.34;1652855;86;21234;-79
2021/04/05 11:39:21;;;;;;;7.60;3.52;;;;;;;9.86;31.25;99251.12;1636206;87;21330;-80
2021/04/05 11:41:54;;;;;;;11.75;3.83;;;;;;;10.01;31.20;99253.02;1630169;86;21407;-79
2021/04/05 11:44:31;;;;;;;19.60;4.83;;;;;;;10.00;31.01;99246.51;1661720;85;21676;-80
2021/04/05 11:46:59;;;;;;;10.43;3.75;;;;;;;10.03;31.07;99241.09;1645302;86;21261;-80
2021/04/05 11:49:32;;;;;;;9.78;3.50;;;;;;;9.97;31.03;99242.72;1639011;86;21201;-79
2021/04/05 11:52:19;;;;;;;6.42;2.90;;;;;;;10.08;31.14;99236.48;1640229;86;21672;-79
2021/04/05 11:55:01;;;;;;;9.55;3.72;;;;;;;10.12;30.14;99239.32;1638578;86;21685;-80
2021/04/05 11:57:40;;;;;;;;;;;;;;;10.02;30.46;99223.61;1658211;86;21463;-79
2021/04/05 12:00:12;;;;;;;13.15;4.10;;;;;;;10.12;31.15;99228.80;1640014;86;20571;-77
2021/04/05 12:03:15;;;;;;;15.93;3.40;;;;;;;10.20;31.07;99224.49;1621704;87;21692;-77
2021/04/05 12:06:16;;;;;;;14.13;5.22;;;;;;;10.37;30.51;99222.34;1637544;87;21205;-78
2021/04/05 12:08:54;;;;;;;15.65;4.22;;;;;;;10.47;31.61;99219.18;1648115;86;21210;-78
2021/04/05 12:11:31;;;;;;;9.68;4.50;;;;;;;10.62;30.79;99217.53;1648787;87;21386;-79
2021/04/05 12:14:16;;;;;;;10.90;3.90;;;;;;;10.67;30.99;99211.58;1660131;85;21204;-78
2021/04/05 12:16:50;;;;;;;8.15;3.98;;;;;;;10.83;30.99;99196.27;1648057;86;21193;-77
2021/04/05 12:19:42;;;;;;;8.93;3.83;;;;;;;11.12;31.08;99194.72;1662833;85;21199;-77
2021/04/05 12:22:10;;;;;;;13.80;5.58;;;;;;;11.15;32.49;99181.84;1649121;85;21828;-78